sensor_id;sensor_type;location;lat;lon;timestamp;temperature;humidity
67899;DHT22;54699;51.796;10.956;2023-02-20T00:01:47;17.70;55.90
67899;DHT22;54699;51.796;10.956;2023-02-20T00:04:15;17.70;55.80
67899;DHT22;54699;51.796;10.956;2023-02-20T00:06:42;17.70;55.90
67899;DHT22;54699;51.796;10.956;2023-02-20T00:09:09;17.70;55.90
67899;DHT22;54699;51.796;10.956;2023-02-20T00:11:37;17.70;55.90
67899;DHT22;54699;51.796;10.956;2023-02-20T00:14:03;17.70;55.80
67899;DHT22;54699;51.796;10.956;2023-02-20T00:16:30;17.70;55.80
67899;DHT22;54699;51.796;10.956;2023-02-20T00:18:57;17.70;55.80
67899;DHT22;54699;51.796;10.956;2023-02-20T00:21:24;17.70;55.80
67899;DHT22;54699;51.796;10.956;2023-02-20T00:23:50;17.70;55.80
67899;DHT22;54699;51.796;10.956;2023-02-20T00:26:17;17.70;55.80
67899;DHT22;54699;51.796;10.956;2023-02-20T00:28:45;17.70;55.80
67899;DHT22;54699;51.796;10.956;2023-02-20T00:31:13;17.70;55.80
67899;DHT22;54699;51.796;10.956;2023-02-20T00:33:42;17.70;55.80
67899;DHT22;54699;51.796;10.956;2023-02-20T00:36:13;17.70;55.80
67899;DHT22;54699;51.796;10.956;2023-02-20T00:38:41;17.70;55.80
67899;DHT22;54699;51.796;10.956;2023-02-20T00:41:08;17.70;55.70
67899;DHT22;54699;51.796;10.956;2023-02-20T00:43:36;17.70;55.80
67899;DHT22;54699;51.796;10.956;2023-02-20T00:46:04;17.60;55.70
67899;DHT22;54699;51.796;10.956;2023-02-20T00:48:31;17.70;55.80
67899;DHT22;54699;51.796;10.956;2023-02-20T00:50:57;17.60;55.70
67899;DHT22;54699;51.796;10.956;2023-02-20T00:53:24;17.60;55.70
67899;DHT22;54699;51.796;10.956;2023-02-20T00:55:51;17.60;55.70
67899;DHT22;54699;51.796;10.956;2023-02-20T00:58:18;17.60;55.60
67899;DHT22;54699;51.796;10.956;2023-02-20T01:00:44;17.60;55.60
67899;DHT22;54699;51.796;10.956;2023-02-20T01:03:12;17.60;55.60
67899;DHT22;54699;51.796;10.956;2023-02-20T01:05:39;17.60;55.60
67899;DHT22;54699;51.796;10.956;2023-02-20T01:08:06;17.60;55.60
67899;DHT22;54699;51.796;10.956;2023-02-20T01:10:32;17.60;55.60
67899;DHT22;54699;51.796;10.956;2023-02-20T01:12:59;17.60;55.60
67899;DHT22;54699;51.796;10.956;2023-02-20T01:15:25;17.60;55.60
67899;DHT22;54699;51.796;10.956;2023-02-20T01:17:52;17.60;55.50
67899;DHT22;54699;51.796;10.956;2023-02-20T01:20:20;17.60;55.50
67899;DHT22;54699;51.796;10.956;2023-02-20T01:22:47;17.60;55.50
67899;DHT22;54699;51.796;10.956;2023-02-20T01:25:14;17.60;55.60
67899;DHT22;54699;51.796;10.956;2023-02-20T01:27:40;17.60;55.50
67899;DHT22;54699;51.796;10.956;2023-02-20T01:30:07;17.60;55.60
67899;DHT22;54699;51.796;10.956;2023-02-20T01:32:35;17.60;55.50
67899;DHT22;54699;51.796;10.956;2023-02-20T01:35:01;17.60;55.50
67899;DHT22;54699;51.796;10.956;2023-02-20T01:37:29;17.60;55.50
67899;DHT22;54699;51.796;10.956;2023-02-20T01:39:56;17.60;55.50
67899;DHT22;54699;51.796;10.956;2023-02-20T01:42:24;17.50;55.30
67899;DHT22;54699;51.796;10.956;2023-02-20T01:44:54;17.50;55.30
67899;DHT22;54699;51.796;10.956;2023-02-20T01:47:21;17.50;55.40
67899;DHT22;54699;51.796;10.956;2023-02-20T01:49:49;17.50;55.40
67899;DHT22;54699;51.796;10.956;2023-02-20T01:52:22;17.50;55.40
67899;DHT22;54699;51.796;10.956;2023-02-20T01:54:54;17.50;55.30
67899;DHT22;54699;51.796;10.956;2023-02-20T01:57:25;17.50;55.30
67899;DHT22;54699;51.796;10.956;2023-02-20T01:59:56;17.60;55.30
67899;DHT22;54699;51.796;10.956;2023-02-20T02:02:26;17.50;55.20
67899;DHT22;54699;51.796;10.956;2023-02-20T02:04:56;17.50;55.10
67899;DHT22;54699;51.796;10.956;2023-02-20T02:07:22;17.50;55.30
67899;DHT22;54699;51.796;10.956;2023-02-20T02:09:50;17.50;55.20
67899;DHT22;54699;51.796;10.956;2023-02-20T02:12:22;17.50;55.30
67899;DHT22;54699;51.796;10.956;2023-02-20T02:14:49;17.50;55.10
67899;DHT22;54699;51.796;10.956;2023-02-20T02:17:24;17.50;55.10
67899;DHT22;54699;51.796;10.956;2023-02-20T02:26:13;17.50;55.10
67899;DHT22;54699;51.796;10.956;2023-02-20T02:29:03;17.50;55.10
67899;DHT22;54699;51.796;10.956;2023-02-20T02:32:00;17.50;55.10
67899;DHT22;54699;51.796;10.956;2023-02-20T02:37:56;17.50;55.10
67899;DHT22;54699;51.796;10.956;2023-02-20T02:40:36;17.50;55.00
67899;DHT22;54699;51.796;10.956;2023-02-20T02:43:07;17.50;55.00
67899;DHT22;54699;51.796;10.956;2023-02-20T02:45:41;17.50;55.00
67899;DHT22;54699;51.796;10.956;2023-02-20T02:48:16;17.50;55.00
67899;DHT22;54699;51.796;10.956;2023-02-20T02:50:47;17.50;54.90
67899;DHT22;54699;51.796;10.956;2023-02-20T02:53:18;17.50;54.90
67899;DHT22;54699;51.796;10.956;2023-02-20T02:55:45;17.50;54.90
67899;DHT22;54699;51.796;10.956;2023-02-20T02:58:11;17.50;54.80
67899;DHT22;54699;51.796;10.956;2023-02-20T03:00:40;17.50;54.90
67899;DHT22;54699;51.796;10.956;2023-02-20T03:03:12;17.50;55.70
67899;DHT22;54699;51.796;10.956;2023-02-20T03:05:44;17.50;54.80
67899;DHT22;54699;51.796;10.956;2023-02-20T03:08:18;17.50;54.80
67899;DHT22;54699;51.796;10.956;2023-02-20T03:10:57;17.50;54.80
67899;DHT22;54699;51.796;10.956;2023-02-20T03:13:27;17.50;54.80
67899;DHT22;54699;51.796;10.956;2023-02-20T03:16:15;17.50;54.80
67899;DHT22;54699;51.796;10.956;2023-02-20T03:18:46;17.50;54.80
67899;DHT22;54699;51.796;10.956;2023-02-20T03:21:16;17.50;54.80
67899;DHT22;54699;51.796;10.956;2023-02-20T03:23:48;17.50;54.80
67899;DHT22;54699;51.796;10.956;2023-02-20T03:26:21;17.50;54.80
67899;DHT22;54699;51.796;10.956;2023-02-20T03:28:55;17.50;54.70
67899;DHT22;54699;51.796;10.956;2023-02-20T03:31:26;17.50;54.60
67899;DHT22;54699;51.796;10.956;2023-02-20T03:33:58;17.50;54.60
67899;DHT22;54699;51.796;10.956;2023-02-20T03:36:49;17.40;54.60
67899;DHT22;54699;51.796;10.956;2023-02-20T03:39:40;17.40;54.50
67899;DHT22;54699;51.796;10.956;2023-02-20T03:42:28;17.40;54.60
67899;DHT22;54699;51.796;10.956;2023-02-20T03:45:16;17.40;54.50
67899;DHT22;54699;51.796;10.956;2023-02-20T03:47:48;17.40;54.50
67899;DHT22;54699;51.796;10.956;2023-02-20T03:50:18;17.40;54.60
67899;DHT22;54699;51.796;10.956;2023-02-20T03:53:02;17.40;54.50
67899;DHT22;54699;51.796;10.956;2023-02-20T03:55:31;17.40;54.40
67899;DHT22;54699;51.796;10.956;2023-02-20T03:57:58;17.40;54.40
67899;DHT22;54699;51.796;10.956;2023-02-20T04:00:29;17.40;54.40
67899;DHT22;54699;51.796;10.956;2023-02-20T04:02:59;17.40;54.40
67899;DHT22;54699;51.796;10.956;2023-02-20T04:05:32;17.40;54.40
67899;DHT22;54699;51.796;10.956;2023-02-20T04:08:04;17.40;54.40
67899;DHT22;54699;51.796;10.956;2023-02-20T04:10:36;17.40;54.30
67899;DHT22;54699;51.796;10.956;2023-02-20T04:13:07;17.40;54.40
67899;DHT22;54699;51.796;10.956;2023-02-20T04:15:35;17.40;54.30
67899;DHT22;54699;51.796;10.956;2023-02-20T04:18:03;17.40;54.30
67899;DHT22;54699;51.796;10.956;2023-02-20T04:20:32;17.40;54.30
67899;DHT22;54699;51.796;10.956;2023-02-20T04:23:00;17.40;54.20
67899;DHT22;54699;51.796;10.956;2023-02-20T04:25:32;17.40;54.30
67899;DHT22;54699;51.796;10.956;2023-02-20T04:28:07;17.40;54.20
67899;DHT22;54699;51.796;10.956;2023-02-20T04:30:34;17.40;54.20
67899;DHT22;54699;51.796;10.956;2023-02-20T04:33:01;17.40;54.10
67899;DHT22;54699;51.796;10.956;2023-02-20T04:35:28;17.40;54.20
67899;DHT22;54699;51.796;10.956;2023-02-20T04:37:55;17.40;54.20
67899;DHT22;54699;51.796;10.956;2023-02-20T04:40:22;17.40;54.10
67899;DHT22;54699;51.796;10.956;2023-02-20T04:42:51;17.40;54.20
67899;DHT22;54699;51.796;10.956;2023-02-20T04:45:19;17.40;54.00
67899;DHT22;54699;51.796;10.956;2023-02-20T04:47:45;17.40;54.10
67899;DHT22;54699;51.796;10.956;2023-02-20T04:50:13;17.40;54.00
67899;DHT22;54699;51.796;10.956;2023-02-20T04:52:44;17.40;54.10
67899;DHT22;54699;51.796;10.956;2023-02-20T04:55:11;17.30;54.00
67899;DHT22;54699;51.796;10.956;2023-02-20T04:57:38;17.40;54.00
67899;DHT22;54699;51.796;10.956;2023-02-20T05:00:07;17.40;53.90
67899;DHT22;54699;51.796;10.956;2023-02-20T05:02:36;17.40;53.80
67899;DHT22;54699;51.796;10.956;2023-02-20T05:05:04;17.40;53.80
67899;DHT22;54699;51.796;10.956;2023-02-20T05:07:32;17.40;53.70
67899;DHT22;54699;51.796;10.956;2023-02-20T05:09:58;17.40;53.70
67899;DHT22;54699;51.796;10.956;2023-02-20T05:12:25;17.50;53.60
67899;DHT22;54699;51.796;10.956;2023-02-20T05:14:52;17.50;53.50
67899;DHT22;54699;51.796;10.956;2023-02-20T05:17:20;17.50;53.30
67899;DHT22;54699;51.796;10.956;2023-02-20T05:19:46;17.50;53.30
67899;DHT22;54699;51.796;10.956;2023-02-20T05:22:13;17.50;53.20
67899;DHT22;54699;51.796;10.956;2023-02-20T05:24:46;17.50;53.10
67899;DHT22;54699;51.796;10.956;2023-02-20T05:27:15;17.60;52.60
67899;DHT22;54699;51.796;10.956;2023-02-20T05:29:43;17.50;53.00
67899;DHT22;54699;51.796;10.956;2023-02-20T05:32:11;17.60;52.90
67899;DHT22;54699;51.796;10.956;2023-02-20T05:34:39;17.60;52.90
67899;DHT22;54699;51.796;10.956;2023-02-20T05:37:06;17.60;52.70
67899;DHT22;54699;51.796;10.956;2023-02-20T05:39:32;17.60;52.80
67899;DHT22;54699;51.796;10.956;2023-02-20T05:41:59;17.60;52.60
67899;DHT22;54699;51.796;10.956;2023-02-20T05:44:26;17.60;52.50
67899;DHT22;54699;51.796;10.956;2023-02-20T05:46:54;17.60;52.10
67899;DHT22;54699;51.796;10.956;2023-02-20T05:49:22;17.60;51.40
67899;DHT22;54699;51.796;10.956;2023-02-20T05:51:51;17.60;50.40
67899;DHT22;54699;51.796;10.956;2023-02-20T05:54:18;17.50;51.00
67899;DHT22;54699;51.796;10.956;2023-02-20T05:56:45;17.50;51.00
67899;DHT22;54699;51.796;10.956;2023-02-20T05:59:15;17.60;51.20
67899;DHT22;54699;51.796;10.956;2023-02-20T06:01:44;17.50;50.40
67899;DHT22;54699;51.796;10.956;2023-02-20T06:04:12;17.60;50.90
67899;DHT22;54699;51.796;10.956;2023-02-20T06:06:39;17.70;50.60
67899;DHT22;54699;51.796;10.956;2023-02-20T06:09:10;17.60;49.50
67899;DHT22;54699;51.796;10.956;2023-02-20T06:11:41;17.60;48.70
67899;DHT22;54699;51.796;10.956;2023-02-20T06:14:16;17.50;48.70
67899;DHT22;54699;51.796;10.956;2023-02-20T06:16:46;17.50;47.30
67899;DHT22;54699;51.796;10.956;2023-02-20T06:19:16;17.50;50.80
67899;DHT22;54699;51.796;10.956;2023-02-20T06:21:46;17.60;50.90
67899;DHT22;54699;51.796;10.956;2023-02-20T06:24:15;17.70;50.80
67899;DHT22;54699;51.796;10.956;2023-02-20T06:26:42;17.60;50.60
67899;DHT22;54699;51.796;10.956;2023-02-20T06:29:10;17.70;50.70
67899;DHT22;54699;51.796;10.956;2023-02-20T06:31:37;17.70;50.80
67899;DHT22;54699;51.796;10.956;2023-02-20T06:34:05;17.70;50.70
67899;DHT22;54699;51.796;10.956;2023-02-20T06:36:33;17.70;49.90
67899;DHT22;54699;51.796;10.956;2023-02-20T06:39:02;17.70;50.30
67899;DHT22;54699;51.796;10.956;2023-02-20T06:41:30;17.60;50.20
67899;DHT22;54699;51.796;10.956;2023-02-20T06:44:00;17.60;49.40
67899;DHT22;54699;51.796;10.956;2023-02-20T06:46:27;17.70;49.90
67899;DHT22;54699;51.796;10.956;2023-02-20T06:48:54;17.70;50.10
67899;DHT22;54699;51.796;10.956;2023-02-20T06:51:23;17.70;48.60
67899;DHT22;54699;51.796;10.956;2023-02-20T06:53:51;17.60;48.30
67899;DHT22;54699;51.796;10.956;2023-02-20T06:56:21;17.70;49.20
67899;DHT22;54699;51.796;10.956;2023-02-20T06:58:57;17.50;49.00
67899;DHT22;54699;51.796;10.956;2023-02-20T07:01:26;17.20;49.30
67899;DHT22;54699;51.796;10.956;2023-02-20T07:03:55;17.50;49.10
67899;DHT22;54699;51.796;10.956;2023-02-20T07:06:24;17.60;48.70
67899;DHT22;54699;51.796;10.956;2023-02-20T07:08:51;17.50;49.10
67899;DHT22;54699;51.796;10.956;2023-02-20T07:11:19;17.60;48.00
67899;DHT22;54699;51.796;10.956;2023-02-20T07:13:50;17.60;48.70
67899;DHT22;54699;51.796;10.956;2023-02-20T07:16:18;17.60;49.10
67899;DHT22;54699;51.796;10.956;2023-02-20T07:18:45;17.60;50.10
67899;DHT22;54699;51.796;10.956;2023-02-20T07:21:12;17.70;49.80
67899;DHT22;54699;51.796;10.956;2023-02-20T07:23:39;17.70;49.80
67899;DHT22;54699;51.796;10.956;2023-02-20T07:26:06;17.70;49.90
67899;DHT22;54699;51.796;10.956;2023-02-20T07:28:42;17.80;49.80
67899;DHT22;54699;51.796;10.956;2023-02-20T07:31:10;17.80;49.80
67899;DHT22;54699;51.796;10.956;2023-02-20T07:33:44;17.80;49.80
67899;DHT22;54699;51.796;10.956;2023-02-20T07:36:12;17.80;49.60
67899;DHT22;54699;51.796;10.956;2023-02-20T07:38:52;17.90;49.80
67899;DHT22;54699;51.796;10.956;2023-02-20T07:41:20;17.90;49.70
67899;DHT22;54699;51.796;10.956;2023-02-20T07:43:47;17.90;49.60
67899;DHT22;54699;51.796;10.956;2023-02-20T07:46:14;17.90;49.70
67899;DHT22;54699;51.796;10.956;2023-02-20T07:48:41;18.00;49.80
67899;DHT22;54699;51.796;10.956;2023-02-20T07:51:10;17.90;49.40
67899;DHT22;54699;51.796;10.956;2023-02-20T07:53:38;17.90;49.00
67899;DHT22;54699;51.796;10.956;2023-02-20T07:56:05;17.90;49.90
67899;DHT22;54699;51.796;10.956;2023-02-20T07:58:32;17.90;49.50
67899;DHT22;54699;51.796;10.956;2023-02-20T08:00:59;17.90;49.20
67899;DHT22;54699;51.796;10.956;2023-02-20T08:03:25;18.00;48.30
67899;DHT22;54699;51.796;10.956;2023-02-20T08:05:52;17.90;49.00
67899;DHT22;54699;51.796;10.956;2023-02-20T08:08:21;17.90;48.20
67899;DHT22;54699;51.796;10.956;2023-02-20T08:10:53;17.80;47.30
67899;DHT22;54699;51.796;10.956;2023-02-20T08:13:20;17.80;48.80
67899;DHT22;54699;51.796;10.956;2023-02-20T08:15:47;17.80;48.10
67899;DHT22;54699;51.796;10.956;2023-02-20T08:18:13;17.90;49.40
67899;DHT22;54699;51.796;10.956;2023-02-20T08:20:40;17.80;47.20
67899;DHT22;54699;51.796;10.956;2023-02-20T08:23:12;17.70;47.60
67899;DHT22;54699;51.796;10.956;2023-02-20T08:25:43;17.70;46.80
67899;DHT22;54699;51.796;10.956;2023-02-20T08:28:11;17.70;48.10
67899;DHT22;54699;51.796;10.956;2023-02-20T08:30:38;17.70;49.50
67899;DHT22;54699;51.796;10.956;2023-02-20T08:33:05;17.80;49.70
67899;DHT22;54699;51.796;10.956;2023-02-20T08:35:32;17.80;49.50
67899;DHT22;54699;51.796;10.956;2023-02-20T08:38:00;17.90;48.70
67899;DHT22;54699;51.796;10.956;2023-02-20T08:40:27;17.70;46.70
67899;DHT22;54699;51.796;10.956;2023-02-20T08:42:56;17.80;46.40
67899;DHT22;54699;51.796;10.956;2023-02-20T08:45:23;17.80;46.60
67899;DHT22;54699;51.796;10.956;2023-02-20T08:47:50;17.80;46.00
67899;DHT22;54699;51.796;10.956;2023-02-20T08:50:23;17.90;47.60
67899;DHT22;54699;51.796;10.956;2023-02-20T08:52:53;18.00;48.20
67899;DHT22;54699;51.796;10.956;2023-02-20T08:55:20;18.00;47.10
67899;DHT22;54699;51.796;10.956;2023-02-20T08:57:50;18.10;47.90
67899;DHT22;54699;51.796;10.956;2023-02-20T09:00:24;18.20;47.90
67899;DHT22;54699;51.796;10.956;2023-02-20T09:02:52;18.20;47.50
67899;DHT22;54699;51.796;10.956;2023-02-20T09:05:19;18.30;47.60
67899;DHT22;54699;51.796;10.956;2023-02-20T09:07:46;18.30;46.00
67899;DHT22;54699;51.796;10.956;2023-02-20T09:10:13;18.30;47.70
67899;DHT22;54699;51.796;10.956;2023-02-20T09:12:40;18.20;47.20
67899;DHT22;54699;51.796;10.956;2023-02-20T09:15:07;18.10;46.40
67899;DHT22;54699;51.796;10.956;2023-02-20T09:17:36;18.10;46.40
67899;DHT22;54699;51.796;10.956;2023-02-20T09:20:03;18.10;47.00
67899;DHT22;54699;51.796;10.956;2023-02-20T09:22:34;18.20;47.70
67899;DHT22;54699;51.796;10.956;2023-02-20T09:25:01;18.20;47.50
67899;DHT22;54699;51.796;10.956;2023-02-20T09:27:31;18.20;48.10
67899;DHT22;54699;51.796;10.956;2023-02-20T09:29:58;18.20;48.40
67899;DHT22;54699;51.796;10.956;2023-02-20T09:32:24;18.10;48.30
67899;DHT22;54699;51.796;10.956;2023-02-20T09:34:53;18.10;48.50
67899;DHT22;54699;51.796;10.956;2023-02-20T09:37:20;18.10;48.40
67899;DHT22;54699;51.796;10.956;2023-02-20T09:39:46;18.20;48.30
67899;DHT22;54699;51.796;10.956;2023-02-20T09:42:17;18.20;48.40
67899;DHT22;54699;51.796;10.956;2023-02-20T09:44:54;18.10;48.30
67899;DHT22;54699;51.796;10.956;2023-02-20T09:47:35;18.10;48.10
67899;DHT22;54699;51.796;10.956;2023-02-20T09:50:12;18.20;47.80
67899;DHT22;54699;51.796;10.956;2023-02-20T09:52:42;18.20;47.30
67899;DHT22;54699;51.796;10.956;2023-02-20T09:55:14;18.20;47.60
67899;DHT22;54699;51.796;10.956;2023-02-20T09:57:46;18.20;47.30
67899;DHT22;54699;51.796;10.956;2023-02-20T10:00:18;18.30;47.60
67899;DHT22;54699;51.796;10.956;2023-02-20T10:02:51;18.30;47.60
67899;DHT22;54699;51.796;10.956;2023-02-20T10:05:27;18.30;47.20
67899;DHT22;54699;51.796;10.956;2023-02-20T10:07:55;18.30;47.50
67899;DHT22;54699;51.796;10.956;2023-02-20T10:10:22;18.40;47.50
67899;DHT22;54699;51.796;10.956;2023-02-20T10:12:55;18.40;47.30
67899;DHT22;54699;51.796;10.956;2023-02-20T10:15:34;18.40;47.40
67899;DHT22;54699;51.796;10.956;2023-02-20T10:18:14;18.30;47.10
67899;DHT22;54699;51.796;10.956;2023-02-20T10:20:50;18.40;47.60
67899;DHT22;54699;51.796;10.956;2023-02-20T10:23:24;18.50;47.60
67899;DHT22;54699;51.796;10.956;2023-02-20T10:26:02;18.50;47.50
67899;DHT22;54699;51.796;10.956;2023-02-20T10:28:32;18.50;46.80
67899;DHT22;54699;51.796;10.956;2023-02-20T10:31:01;18.60;47.60
67899;DHT22;54699;51.796;10.956;2023-02-20T10:33:39;18.50;47.30
67899;DHT22;54699;51.796;10.956;2023-02-20T10:36:13;18.60;46.60
67899;DHT22;54699;51.796;10.956;2023-02-20T10:38:48;18.60;46.50
67899;DHT22;54699;51.796;10.956;2023-02-20T10:41:19;18.70;45.70
67899;DHT22;54699;51.796;10.956;2023-02-20T10:43:54;18.70;44.60
67899;DHT22;54699;51.796;10.956;2023-02-20T10:46:28;18.70;45.60
67899;DHT22;54699;51.796;10.956;2023-02-20T10:49:01;18.80;46.40
67899;DHT22;54699;51.796;10.956;2023-02-20T10:51:38;18.80;45.90
67899;DHT22;54699;51.796;10.956;2023-02-20T10:54:11;18.90;46.30
67899;DHT22;54699;51.796;10.956;2023-02-20T10:56:44;18.90;46.10
67899;DHT22;54699;51.796;10.956;2023-02-20T10:59:17;19.10;46.20
67899;DHT22;54699;51.796;10.956;2023-02-20T11:01:54;19.10;47.30
67899;DHT22;54699;51.796;10.956;2023-02-20T11:04:22;19.10;45.90
67899;DHT22;54699;51.796;10.956;2023-02-20T11:06:57;19.20;46.50
67899;DHT22;54699;51.796;10.956;2023-02-20T11:09:27;19.10;46.70
67899;DHT22;54699;51.796;10.956;2023-02-20T11:11:54;19.20;47.50
67899;DHT22;54699;51.796;10.956;2023-02-20T11:14:22;19.20;46.60
67899;DHT22;54699;51.796;10.956;2023-02-20T11:16:55;19.20;47.00
67899;DHT22;54699;51.796;10.956;2023-02-20T11:19:27;19.10;47.30
67899;DHT22;54699;51.796;10.956;2023-02-20T11:21:59;19.10;47.10
67899;DHT22;54699;51.796;10.956;2023-02-20T11:24:27;19.00;47.40
67899;DHT22;54699;51.796;10.956;2023-02-20T11:27:00;19.00;47.70
67899;DHT22;54699;51.796;10.956;2023-02-20T11:29:38;19.00;47.50
67899;DHT22;54699;51.796;10.956;2023-02-20T11:32:21;19.00;47.40
67899;DHT22;54699;51.796;10.956;2023-02-20T11:35:01;18.90;47.40
67899;DHT22;54699;51.796;10.956;2023-02-20T11:37:32;19.00;47.60
67899;DHT22;54699;51.796;10.956;2023-02-20T11:39:58;18.90;47.60
67899;DHT22;54699;51.796;10.956;2023-02-20T11:42:30;18.90;47.40
67899;DHT22;54699;51.796;10.956;2023-02-20T11:45:10;18.90;47.40
67899;DHT22;54699;51.796;10.956;2023-02-20T11:47:38;19.00;46.80
67899;DHT22;54699;51.796;10.956;2023-02-20T11:50:10;18.90;46.90
67899;DHT22;54699;51.796;10.956;2023-02-20T11:52:55;18.80;46.10
67899;DHT22;54699;51.796;10.956;2023-02-20T11:55:24;18.80;46.10
67899;DHT22;54699;51.796;10.956;2023-02-20T11:57:53;18.80;46.90
67899;DHT22;54699;51.796;10.956;2023-02-20T12:00:21;18.80;46.70
67899;DHT22;54699;51.796;10.956;2023-02-20T12:02:51;18.90;47.40
67899;DHT22;54699;51.796;10.956;2023-02-20T12:05:35;18.80;45.30
67899;DHT22;54699;51.796;10.956;2023-02-20T12:08:17;18.90;46.40
67899;DHT22;54699;51.796;10.956;2023-02-20T12:11:00;18.90;46.40
67899;DHT22;54699;51.796;10.956;2023-02-20T12:13:30;18.90;46.40
67899;DHT22;54699;51.796;10.956;2023-02-20T12:16:05;18.90;46.90
67899;DHT22;54699;51.796;10.956;2023-02-20T12:18:48;19.00;47.10
67899;DHT22;54699;51.796;10.956;2023-02-20T12:21:22;18.90;46.90
67899;DHT22;54699;51.796;10.956;2023-02-20T12:24:02;19.00;47.20
67899;DHT22;54699;51.796;10.956;2023-02-20T12:26:39;19.00;47.10
67899;DHT22;54699;51.796;10.956;2023-02-20T12:29:18;18.90;47.20
67899;DHT22;54699;51.796;10.956;2023-02-20T12:32:08;19.00;47.00
67899;DHT22;54699;51.796;10.956;2023-02-20T12:34:56;19.00;47.30
67899;DHT22;54699;51.796;10.956;2023-02-20T12:37:32;19.00;46.80
67899;DHT22;54699;51.796;10.956;2023-02-20T12:43:05;19.10;46.40
67899;DHT22;54699;51.796;10.956;2023-02-20T12:45:43;19.20;47.00
67899;DHT22;54699;51.796;10.956;2023-02-20T12:48:21;19.20;46.50
67899;DHT22;54699;51.796;10.956;2023-02-20T12:51:08;19.10;46.00
67899;DHT22;54699;51.796;10.956;2023-02-20T12:53:49;19.10;45.90
67899;DHT22;54699;51.796;10.956;2023-02-20T12:56:31;19.00;46.10
67899;DHT22;54699;51.796;10.956;2023-02-20T12:59:07;18.90;46.30
67899;DHT22;54699;51.796;10.956;2023-02-20T13:01:46;19.00;46.20
67899;DHT22;54699;51.796;10.956;2023-02-20T13:04:18;18.90;45.80
67899;DHT22;54699;51.796;10.956;2023-02-20T13:06:52;18.90;45.90
67899;DHT22;54699;51.796;10.956;2023-02-20T13:09:25;18.90;46.40
67899;DHT22;54699;51.796;10.956;2023-02-20T13:12:00;18.90;46.10
67899;DHT22;54699;51.796;10.956;2023-02-20T13:14:32;18.90;46.50
67899;DHT22;54699;51.796;10.956;2023-02-20T13:17:12;18.90;46.70
67899;DHT22;54699;51.796;10.956;2023-02-20T13:19:48;18.90;45.70
67899;DHT22;54699;51.796;10.956;2023-02-20T13:22:21;18.90;45.70
67899;DHT22;54699;51.796;10.956;2023-02-20T13:24:48;18.90;45.90
67899;DHT22;54699;51.796;10.956;2023-02-20T13:27:27;18.90;46.00
67899;DHT22;54699;51.796;10.956;2023-02-20T13:29:57;19.00;46.60
67899;DHT22;54699;51.796;10.956;2023-02-20T13:32:26;18.90;46.70
67899;DHT22;54699;51.796;10.956;2023-02-20T13:37:56;19.00;46.90
67899;DHT22;54699;51.796;10.956;2023-02-20T13:40:37;18.90;46.90
67899;DHT22;54699;51.796;10.956;2023-02-20T13:43:18;18.90;47.00
67899;DHT22;54699;51.796;10.956;2023-02-20T13:46:08;19.00;47.00
67899;DHT22;54699;51.796;10.956;2023-02-20T13:48:39;19.00;47.20
67899;DHT22;54699;51.796;10.956;2023-02-20T13:51:27;18.90;47.50
67899;DHT22;54699;51.796;10.956;2023-02-20T13:53:56;19.00;47.30
67899;DHT22;54699;51.796;10.956;2023-02-20T13:56:30;19.00;47.50
67899;DHT22;54699;51.796;10.956;2023-02-20T13:59:12;19.00;47.70
67899;DHT22;54699;51.796;10.956;2023-02-20T14:01:55;19.00;47.30
67899;DHT22;54699;51.796;10.956;2023-02-20T14:04:23;19.00;47.10
67899;DHT22;54699;51.796;10.956;2023-02-20T14:06:51;19.00;47.90
67899;DHT22;54699;51.796;10.956;2023-02-20T14:09:21;18.90;47.60
67899;DHT22;54699;51.796;10.956;2023-02-20T14:11:52;18.90;48.50
67899;DHT22;54699;51.796;10.956;2023-02-20T14:14:26;18.90;47.10
67899;DHT22;54699;51.796;10.956;2023-02-20T14:17:02;18.90;47.00
67899;DHT22;54699;51.796;10.956;2023-02-20T14:19:30;18.90;47.10
67899;DHT22;54699;51.796;10.956;2023-02-20T14:22:12;18.90;47.20
67899;DHT22;54699;51.796;10.956;2023-02-20T14:27:50;18.90;48.10
67899;DHT22;54699;51.796;10.956;2023-02-20T14:30:19;18.80;48.40
67899;DHT22;54699;51.796;10.956;2023-02-20T14:32:48;18.70;48.60
67899;DHT22;54699;51.796;10.956;2023-02-20T14:35:35;18.70;48.60
67899;DHT22;54699;51.796;10.956;2023-02-20T14:38:12;18.70;48.50
67899;DHT22;54699;51.796;10.956;2023-02-20T14:40:47;18.70;48.00
67899;DHT22;54699;51.796;10.956;2023-02-20T14:43:16;18.70;47.90
67899;DHT22;54699;51.796;10.956;2023-02-20T14:45:46;18.70;48.30
67899;DHT22;54699;51.796;10.956;2023-02-20T14:48:24;18.70;48.90
67899;DHT22;54699;51.796;10.956;2023-02-20T14:51:02;18.70;48.90
67899;DHT22;54699;51.796;10.956;2023-02-20T14:53:34;18.70;48.80
67899;DHT22;54699;51.796;10.956;2023-02-20T14:56:08;18.60;48.70
67899;DHT22;54699;51.796;10.956;2023-02-20T14:58:36;18.70;48.20
67899;DHT22;54699;51.796;10.956;2023-02-20T15:01:13;18.60;48.50
67899;DHT22;54699;51.796;10.956;2023-02-20T15:03:55;18.70;48.80
67899;DHT22;54699;51.796;10.956;2023-02-20T15:06:25;18.70;49.00
67899;DHT22;54699;51.796;10.956;2023-02-20T15:08:55;18.60;48.80
67899;DHT22;54699;51.796;10.956;2023-02-20T15:11:23;18.60;49.00
67899;DHT22;54699;51.796;10.956;2023-02-20T15:13:50;18.60;49.10
67899;DHT22;54699;51.796;10.956;2023-02-20T15:16:21;18.60;49.00
67899;DHT22;54699;51.796;10.956;2023-02-20T15:18:50;18.50;49.20
67899;DHT22;54699;51.796;10.956;2023-02-20T15:21:30;18.60;49.10
67899;DHT22;54699;51.796;10.956;2023-02-20T15:24:12;18.60;49.10
67899;DHT22;54699;51.796;10.956;2023-02-20T15:26:51;18.60;49.30
67899;DHT22;54699;51.796;10.956;2023-02-20T15:29:19;18.60;49.30
67899;DHT22;54699;51.796;10.956;2023-02-20T15:31:54;18.60;49.40
67899;DHT22;54699;51.796;10.956;2023-02-20T15:34:23;18.50;49.50
67899;DHT22;54699;51.796;10.956;2023-02-20T15:36:51;18.50;49.30
67899;DHT22;54699;51.796;10.956;2023-02-20T15:39:18;18.50;49.50
67899;DHT22;54699;51.796;10.956;2023-02-20T15:41:45;18.50;49.40
67899;DHT22;54699;51.796;10.956;2023-02-20T15:44:12;18.60;48.30
67899;DHT22;54699;51.796;10.956;2023-02-20T15:46:40;18.50;51.70
67899;DHT22;54699;51.796;10.956;2023-02-20T15:49:08;18.50;52.80
67899;DHT22;54699;51.796;10.956;2023-02-20T15:51:36;18.50;57.40
67899;DHT22;54699;51.796;10.956;2023-02-20T15:54:05;18.50;58.00
67899;DHT22;54699;51.796;10.956;2023-02-20T15:56:36;18.50;58.40
67899;DHT22;54699;51.796;10.956;2023-02-20T15:59:04;18.50;57.40